Time;durP1;ratioP1;P1;durP2;ratioP2;P2;SDS_P1;SDS_P2;PMS_P1;PMS_P2;Temp;Humidity;BMP_temperature;BMP_pressure;BME280_temperature;BME280_humidity;BME280_pressure;Samples;Min_cycle;Max_cycle;Signal;HPM_P1;HPM_P2
2022/11/27 00:01:58;;;;;;;12.52;4.78;;;7.30;99.90;;;;;;5072181;28;20105;-72
2022/11/27 00:04:24;;;;;;;13.02;4.65;;;7.50;99.90;;;;;;5050179;28;20045;-72
2022/11/27 00:06:49;;;;;;;15.63;4.85;;;7.50;99.90;;;;;;5055435;28;20052;-72
2022/11/27 00:09:15;;;;;;;11.55;4.90;;;7.50;99.90;;;;;;5065170;28;20036;-72
2022/11/27 00:11:42;;;;;;;12.43;4.53;;;7.50;99.90;;;;;;5045027;28;20485;-72
2022/11/27 00:14:10;;;;;;;15.63;5.40;;;7.40;99.90;;;;;;5053875;28;20525;-72
2022/11/27 00:16:36;;;;;;;12.07;4.13;;;7.40;99.90;;;;;;5072089;28;20151;-72
2022/11/27 00:19:02;;;;;;;14.45;4.85;;;7.40;99.90;;;;;;5055268;28;20504;-72
2022/11/27 00:21:30;;;;;;;14.10;4.93;;;7.40;99.90;;;;;;5053445;28;20123;-72
2022/11/27 00:23:58;;;;;;;14.82;4.30;;;7.40;99.90;;;;;;5053105;28;20044;-72
2022/11/27 00:26:24;;;;;;;14.20;4.90;;;7.40;99.90;;;;;;5071872;28;20041;-72
2022/11/27 00:28:50;;;;;;;16.13;5.13;;;7.40;99.90;;;;;;5055285;28;20041;-72
2022/11/27 00:31:21;;;;;;;12.52;4.38;;;7.40;99.90;;;;;;5069508;28;20098;-72
2022/11/27 00:33:47;;;;;;;13.98;4.60;;;7.40;99.90;;;;;;5065943;28;20036;-72
2022/11/27 00:36:14;;;;;;;11.80;5.05;;;7.30;99.90;;;;;;5054155;28;20037;-72
2022/11/27 00:38:40;;;;;;;13.65;4.93;;;7.30;99.90;;;;;;5035338;28;20052;-72
2022/11/27 00:41:13;;;;;;;11.93;4.82;;;7.20;99.90;;;;;;5053905;28;20044;-72
2022/11/27 00:43:39;;;;;;;16.80;5.43;;;7.30;99.90;;;;;;5055082;28;20036;-72
2022/11/27 00:46:04;;;;;;;16.23;5.88;;;7.30;99.90;;;;;;5071607;28;20090;-72
2022/11/27 00:48:31;;;;;;;13.80;4.40;;;7.30;99.90;;;;;;5034874;28;20064;-72
2022/11/27 00:51:01;;;;;;;17.00;5.47;;;7.30;99.90;;;;;;5052984;28;20123;-72
2022/11/27 00:53:27;;;;;;;12.60;5.15;;;7.30;99.90;;;;;;5054955;28;20040;-72
2022/11/27 00:55:54;;;;;;;13.38;4.47;;;7.20;99.90;;;;;;5071707;28;20132;-72
2022/11/27 00:58:19;;;;;;;13.27;4.25;;;7.30;99.90;;;;;;5054964;28;20094;-72
2022/11/27 01:00:45;;;;;;;14.27;4.70;;;7.30;99.90;;;;;;5070429;28;20040;-72
2022/11/27 01:03:10;;;;;;;17.08;4.93;;;7.30;99.90;;;;;;5071336;28;20541;-72
2022/11/27 01:05:36;;;;;;;12.32;4.40;;;7.30;99.90;;;;;;5053317;28;20049;-72
2022/11/27 01:08:03;;;;;;;14.43;5.10;;;7.20;99.90;;;;;;5055012;28;20048;-72
2022/11/27 01:10:28;;;;;;;13.57;4.30;;;7.20;99.90;;;;;;5065655;28;20033;-72
2022/11/27 01:12:54;;;;;;;16.15;5.78;;;7.20;99.90;;;;;;5042096;28;20033;-72
2022/11/27 01:15:19;;;;;;;15.00;5.20;;;7.20;99.90;;;;;;5051541;28;20183;-72
2022/11/27 01:17:45;;;;;;;15.52;4.55;;;7.20;99.90;;;;;;5035462;28;20087;-72
2022/11/27 01:20:11;;;;;;;13.25;4.80;;;7.10;99.90;;;;;;5051467;28;20528;-72
2022/11/27 01:22:37;;;;;;;14.23;5.78;;;7.10;99.90;;;;;;5049028;28;20055;-72
2022/11/27 01:25:03;;;;;;;11.60;4.72;;;7.10;99.90;;;;;;5054547;28;20049;-72
2022/11/27 01:27:28;;;;;;;10.75;4.47;;;7.00;99.90;;;;;;5071692;28;20397;-72
2022/11/27 01:29:54;;;;;;;14.27;4.05;;;7.10;99.90;;;;;;5071379;28;20124;-72
2022/11/27 01:32:19;;;;;;;11.63;4.50;;;7.10;99.90;;;;;;5053027;28;20040;-72
2022/11/27 01:34:45;;;;;;;14.98;4.85;;;7.10;99.90;;;;;;5047843;28;20033;-72
2022/11/27 01:37:10;;;;;;;18.45;5.15;;;7.10;99.90;;;;;;5037700;28;20047;-72
2022/11/27 01:39:36;;;;;;;12.07;4.32;;;7.20;99.90;;;;;;5074848;28;20033;-72
2022/11/27 01:42:01;;;;;;;14.23;5.13;;;7.00;99.90;;;;;;5056609;28;20040;-72
2022/11/27 01:44:27;;;;;;;12.48;4.53;;;7.00;99.90;;;;;;5056096;28;20094;-72
2022/11/27 01:47:00;;;;;;;16.05;5.10;;;7.00;99.90;;;;;;5074787;28;20106;-72
2022/11/27 01:49:39;;;;;;;14.18;4.90;;;7.00;99.90;;;;;;5058341;28;20048;-72
2022/11/27 01:52:33;;;;;;;15.50;4.90;;;6.90;99.90;;;;;;5073192;28;20123;-71
2022/11/27 01:55:04;;;;;;;12.38;3.78;;;7.00;99.90;;;;;;5054932;28;20056;-72
2022/11/27 01:57:35;;;;;;;13.65;4.32;;;7.10;99.90;;;;;;5073523;28;20497;-71
2022/11/27 02:00:03;;;;;;;12.57;4.40;;;7.00;99.90;;;;;;5057893;28;20040;-72
2022/11/27 02:02:29;;;;;;;12.98;4.35;;;6.90;99.90;;;;;;5047565;28;20045;-72
2022/11/27 02:04:55;;;;;;;17.85;4.82;;;6.90;99.90;;;;;;5017994;28;20410;-72
2022/11/27 02:07:20;;;;;;;12.52;4.60;;;6.80;99.90;;;;;;5041387;28;20068;-72
2022/11/27 02:09:46;;;;;;;13.57;4.63;;;6.90;99.90;;;;;;5074362;28;20530;-72
2022/11/27 02:12:23;;;;;;;12.75;4.63;;;6.90;99.90;;;;;;5069494;28;20049;-72
2022/11/27 02:15:03;;;;;;;13.57;4.82;;;6.90;99.90;;;;;;5074436;28;20481;-72
2022/11/27 02:18:03;;;;;;;14.73;4.40;;;6.80;99.90;;;;;;5074548;28;20381;-72
2022/11/27 02:20:39;;;;;;;9.68;3.83;;;6.90;99.90;;;;;;5073017;28;20036;-72
2022/11/27 02:23:40;;;;;;;13.65;4.65;;;6.90;99.90;;;;;;5074341;28;20079;-72
2022/11/27 02:26:37;;;;;;;11.30;4.10;;;6.90;99.90;;;;;;5071516;28;20573;-72
2022/11/27 02:29:03;;;;;;;15.07;4.60;;;6.90;99.90;;;;;;5057550;28;20094;-72
2022/11/27 02:31:50;;;;;;;11.77;4.90;;;6.90;99.90;;;;;;5059390;28;20041;-72
2022/11/27 02:34:24;;;;;;;13.30;5.38;;;6.80;99.90;;;;;;5036396;28;20123;-72
2022/11/27 02:36:59;;;;;;;11.25;4.80;;;6.80;99.90;;;;;;5061068;28;20082;-72
2022/11/27 02:39:33;;;;;;;12.13;4.80;;;6.80;99.90;;;;;;5057138;28;20043;-72
2022/11/27 02:42:10;;;;;;;15.07;4.07;;;6.80;99.90;;;;;;5072401;28;20048;-72
2022/11/27 02:44:42;;;;;;;13.48;4.75;;;6.80;99.90;;;;;;5057241;28;20106;-72
2022/11/27 02:47:08;;;;;;;12.68;4.45;;;6.90;99.90;;;;;;5055421;28;20110;-72
2022/11/27 02:49:36;;;;;;;11.98;4.80;;;6.80;99.90;;;;;;5073615;28;20547;-72
2022/11/27 02:52:03;;;;;;;16.40;4.82;;;6.80;99.90;;;;;;5072122;28;20040;-72
2022/11/27 02:54:30;;;;;;;10.45;4.70;;;6.80;99.90;;;;;;5056971;28;20036;-72
2022/11/27 02:56:59;;;;;;;11.32;4.95;;;6.90;99.90;;;;;;5055689;28;20037;-72
2022/11/27 02:59:30;;;;;;;10.88;4.32;;;6.90;99.90;;;;;;5056674;28;20045;-72
2022/11/27 03:02:01;;;;;;;14.20;4.88;;;6.80;99.90;;;;;;5068561;28;20048;-72
2022/11/27 03:04:33;;;;;;;11.55;5.03;;;6.80;99.90;;;;;;5073159;28;20110;-72
2022/11/27 03:07:06;;;;;;;10.02;4.20;;;6.80;99.90;;;;;;5055251;28;20048;-72
2022/11/27 03:09:41;;;;;;;12.50;5.68;;;6.90;99.90;;;;;;5054283;28;20055;-72
2022/11/27 03:12:08;;;;;;;12.63;5.15;;;6.90;99.90;;;;;;5016902;28;20037;-72
2022/11/27 03:14:35;;;;;;;14.05;4.43;;;6.90;99.90;;;;;;5033124;28;20042;-72
2022/11/27 03:17:30;;;;;;;9.95;4.45;;;6.90;99.90;;;;;;5038130;28;20090;-72
2022/11/27 03:20:25;;;;;;;13.07;4.40;;;6.90;99.90;;;;;;4996678;28;20512;-72
2022/11/27 03:22:54;;;;;;;11.27;4.68;;;6.80;99.90;;;;;;5053068;28;20151;-72
2022/11/27 03:25:21;;;;;;;14.30;4.43;;;6.90;99.90;;;;;;5035502;28;20045;-72
2022/11/27 03:27:59;;;;;;;10.68;4.60;;;6.90;99.90;;;;;;5051276;28;20072;-72
2022/11/27 03:30:25;;;;;;;12.75;4.03;;;6.90;99.90;;;;;;5065271;28;20041;-72
2022/11/27 03:32:51;;;;;;;10.60;4.13;;;7.00;99.90;;;;;;5062624;28;20127;-72
2022/11/27 03:35:20;;;;;;;9.10;3.53;;;7.00;99.90;;;;;;5052824;28;20091;-72
2022/11/27 03:37:46;;;;;;;10.13;3.92;;;7.00;99.90;;;;;;5069141;28;20040;-72
2022/11/27 03:40:12;;;;;;;12.25;3.70;;;7.00;99.90;;;;;;5068096;28;20067;-72
2022/11/27 03:42:56;;;;;;;13.88;4.63;;;6.90;99.90;;;;;;5040009;28;20183;-72
2022/11/27 03:45:33;;;;;;;13.98;5.03;;;7.00;99.90;;;;;;5032233;28;20102;-72
2022/11/27 03:48:14;;;;;;;12.70;4.00;;;6.90;99.90;;;;;;5051611;28;20139;-71
2022/11/27 03:51:11;;;;;;;14.18;4.55;;;6.90;99.90;;;;;;5034856;28;20037;-72
2022/11/27 03:53:57;;;;;;;8.68;3.20;;;6.90;99.90;;;;;;5044343;28;20390;-72
2022/11/27 03:56:32;;;;;;;12.23;4.40;;;7.00;99.90;;;;;;5034152;28;20048;-72
2022/11/27 03:59:09;;;;;;;7.85;3.13;;;7.00;99.90;;;;;;5049404;28;20037;-72
2022/11/27 04:01:35;;;;;;;13.82;4.40;;;6.90;99.90;;;;;;5034528;28;20052;-72
2022/11/27 04:04:00;;;;;;;8.07;3.05;;;7.00;99.90;;;;;;5051794;28;20055;-72
2022/11/27 04:06:26;;;;;;;9.90;3.75;;;6.90;99.90;;;;;;5034579;28;20045;-72
2022/11/27 04:08:52;;;;;;;10.05;4.10;;;7.00;99.90;;;;;;5052127;28;20098;-72
2022/11/27 04:11:18;;;;;;;9.05;3.50;;;6.90;99.90;;;;;;5060339;28;20033;-72
2022/11/27 04:13:43;;;;;;;10.23;3.67;;;6.90;99.90;;;;;;5055186;28;20029;-72
2022/11/27 04:16:09;;;;;;;12.75;4.50;;;6.80;99.90;;;;;;5050790;28;20477;-71
2022/11/27 04:18:34;;;;;;;9.45;3.28;;;6.80;99.90;;;;;;5045848;28;20036;-71
2022/11/27 04:21:00;;;;;;;11.13;3.92;;;6.80;99.90;;;;;;5034119;28;20036;-72
2022/11/27 04:23:26;;;;;;;9.50;3.70;;;6.70;99.90;;;;;;5051741;28;20492;-71
2022/11/27 04:25:51;;;;;;;11.75;3.75;;;6.80;99.90;;;;;;5052177;28;20051;-71
2022/11/27 04:28:17;;;;;;;12.70;4.85;;;6.80;99.90;;;;;;5069889;28;20033;-71
2022/11/27 04:30:44;;;;;;;11.55;3.10;;;6.70;99.90;;;;;;5037163;28;20029;-72
2022/11/27 04:33:09;;;;;;;11.27;4.03;;;6.70;99.90;;;;;;5044236;28;20044;-71
2022/11/27 04:35:35;;;;;;;6.65;2.70;;;6.70;99.90;;;;;;5055625;28;20037;-72
2022/11/27 04:38:01;;;;;;;10.18;4.43;;;6.60;99.90;;;;;;5047921;28;20041;-71
2022/11/27 04:40:26;;;;;;;14.35;4.85;;;6.60;99.90;;;;;;5033526;28;20032;-71
2022/11/27 04:42:52;;;;;;;12.45;4.15;;;6.60;99.90;;;;;;5034899;28;20044;-71
2022/11/27 04:45:18;;;;;;;12.20;3.97;;;6.60;99.90;;;;;;5050386;28;20105;-72
2022/11/27 04:47:43;;;;;;;8.07;3.20;;;6.60;99.90;;;;;;5058895;28;20053;-71
2022/11/27 04:50:09;;;;;;;11.50;4.25;;;6.60;99.90;;;;;;5052521;28;20090;-71
2022/11/27 04:52:35;;;;;;;12.52;4.05;;;6.70;99.90;;;;;;5044327;28;20098;-71
2022/11/27 04:55:01;;;;;;;9.25;4.30;;;6.60;99.90;;;;;;5053643;28;20037;-72
2022/11/27 04:57:27;;;;;;;11.88;3.95;;;6.60;99.90;;;;;;5045041;28;20033;-72
2022/11/27 04:59:52;;;;;;;10.55;3.63;;;6.60;99.90;;;;;;5065154;28;20522;-71
2022/11/27 05:02:18;;;;;;;10.82;4.10;;;6.50;99.90;;;;;;5051483;28;20033;-72
2022/11/27 05:04:44;;;;;;;10.80;3.80;;;6.60;99.90;;;;;;5050199;28;20118;-72
2022/11/27 05:07:10;;;;;;;12.98;4.13;;;6.50;99.90;;;;;;5051499;28;20044;-71
2022/11/27 05:09:35;;;;;;;12.07;4.20;;;6.40;99.90;;;;;;5051606;28;20044;-72
2022/11/27 05:12:01;;;;;;;10.98;4.40;;;6.40;99.90;;;;;;5038579;28;20041;-71
2022/11/27 05:14:28;;;;;;;11.80;3.58;;;6.50;99.90;;;;;;5054398;28;20492;-72
2022/11/27 05:16:58;;;;;;;10.15;3.83;;;6.50;99.90;;;;;;5054588;28;20037;-72
2022/11/27 05:19:26;;;;;;;7.57;2.83;;;6.60;99.90;;;;;;5043991;28;20043;-71
2022/11/27 05:21:53;;;;;;;11.02;4.30;;;6.60;99.90;;;;;;5037608;28;20037;-71
2022/11/27 05:24:20;;;;;;;8.15;3.22;;;6.70;99.90;;;;;;5054143;28;20080;-72
2022/11/27 05:26:47;;;;;;;10.30;3.55;;;6.60;99.90;;;;;;5055148;28;20067;-72
2022/11/27 05:29:13;;;;;;;9.80;3.78;;;6.60;99.90;;;;;;5037447;28;20036;-71
2022/11/27 05:31:39;;;;;;;10.10;3.53;;;6.50;99.90;;;;;;5054121;28;20041;-71
2022/11/27 05:34:05;;;;;;;10.50;3.55;;;6.60;99.90;;;;;;5037400;28;20048;-72
2022/11/27 05:36:32;;;;;;;12.88;3.50;;;6.60;99.90;;;;;;5054829;28;20040;-72
2022/11/27 05:38:59;;;;;;;8.65;3.42;;;6.60;99.90;;;;;;5036171;28;20041;-72
2022/11/27 05:41:24;;;;;;;8.55;2.85;;;6.50;99.90;;;;;;5055344;28;20045;-72
2022/11/27 05:43:50;;;;;;;10.93;4.03;;;6.70;99.90;;;;;;5054109;28;20039;-72
2022/11/27 05:46:18;;;;;;;9.38;3.20;;;6.60;99.90;;;;;;5053225;28;20394;-72
2022/11/27 05:48:44;;;;;;;10.43;3.60;;;6.50;99.90;;;;;;5037426;28;20048;-72
2022/11/27 05:51:09;;;;;;;12.90;3.50;;;6.60;99.90;;;;;;5053353;28;20041;-72
2022/11/27 05:53:35;;;;;;;12.60;3.50;;;6.50;99.90;;;;;;5055135;28;20072;-72
2022/11/27 05:56:07;;;;;;;12.40;3.42;;;6.60;99.90;;;;;;5054132;28;20053;-72
2022/11/27 05:58:32;;;;;;;10.30;3.25;;;6.50;99.90;;;;;;5038007;28;20048;-72
2022/11/27 06:00:58;;;;;;;8.77;3.30;;;6.40;99.90;;;;;;5053783;28;20040;-72
2022/11/27 06:03:24;;;;;;;12.02;3.97;;;6.40;99.90;;;;;;5037738;28;20055;-72
2022/11/27 06:05:50;;;;;;;9.55;4.40;;;6.30;99.90;;;;;;5038046;28;20045;-72
2022/11/27 06:08:16;;;;;;;9.90;3.25;;;6.40;99.90;;;;;;5017982;28;20037;-72
2022/11/27 06:10:42;;;;;;;9.23;3.30;;;6.40;99.90;;;;;;5048337;28;20047;-72
2022/11/27 06:13:08;;;;;;;10.32;3.60;;;6.40;99.90;;;;;;5037707;28;20120;-72
2022/11/27 06:15:35;;;;;;;7.70;3.30;;;6.40;99.90;;;;;;5036835;28;20097;-72
2022/11/27 06:18:01;;;;;;;13.52;4.00;;;6.40;99.90;;;;;;5042228;28;20051;-72
2022/11/27 06:20:26;;;;;;;9.60;3.53;;;6.40;99.90;;;;;;5033086;28;20033;-72
2022/11/27 06:22:52;;;;;;;11.43;3.70;;;6.40;99.90;;;;;;5043727;28;20049;-72
2022/11/27 06:25:17;;;;;;;12.00;3.70;;;6.40;99.90;;;;;;5051825;28;20041;-72
2022/11/27 06:27:43;;;;;;;11.25;4.00;;;6.30;99.90;;;;;;5041537;28;20040;-72
2022/11/27 06:30:09;;;;;;;6.63;2.60;;;6.40;99.90;;;;;;5050652;28;20039;-72
2022/11/27 06:32:35;;;;;;;10.30;3.38;;;6.50;99.90;;;;;;5054108;28;20445;-72
2022/11/27 06:35:00;;;;;;;12.45;3.53;;;6.60;99.90;;;;;;5052356;28;20045;-72
2022/11/27 06:37:26;;;;;;;9.40;3.20;;;6.50;99.90;;;;;;5052608;28;20033;-72
2022/11/27 06:39:51;;;;;;;7.53;3.47;;;6.50;99.90;;;;;;5053816;28;20037;-72
2022/11/27 06:42:17;;;;;;;10.10;2.88;;;6.50;99.90;;;;;;5064593;28;20101;-72
2022/11/27 06:44:43;;;;;;;12.63;4.20;;;6.50;99.90;;;;;;5063625;28;20117;-72
2022/11/27 06:47:08;;;;;;;9.95;3.33;;;6.40;99.90;;;;;;5060820;28;20031;-72
2022/11/27 06:49:34;;;;;;;10.32;3.08;;;6.50;99.90;;;;;;5035388;28;20485;-72
2022/11/27 06:52:00;;;;;;;11.50;3.40;;;6.50;99.90;;;;;;5053403;28;20393;-72
2022/11/27 06:54:26;;;;;;;8.82;3.40;;;6.50;99.90;;;;;;5048894;28;20059;-72
2022/11/27 06:56:51;;;;;;;11.20;3.50;;;6.40;99.90;;;;;;5042292;28;20552;-72
2022/11/27 06:59:17;;;;;;;8.93;3.13;;;6.40;99.90;;;;;;5039289;28;20039;-72
2022/11/27 07:01:43;;;;;;;11.32;3.22;;;6.50;99.90;;;;;;5066906;28;20048;-72
2022/11/27 07:04:10;;;;;;;9.68;3.72;;;6.40;99.90;;;;;;5053888;28;20139;-72
2022/11/27 07:06:36;;;;;;;12.23;3.78;;;6.40;99.90;;;;;;5067736;28;20051;-72
2022/11/27 07:09:02;;;;;;;8.55;3.33;;;6.50;99.90;;;;;;5054568;28;20037;-72
2022/11/27 07:11:30;;;;;;;10.30;3.38;;;6.60;99.90;;;;;;5039248;28;20037;-72
2022/11/27 07:13:59;;;;;;;10.77;2.92;;;6.50;99.90;;;;;;5055445;28;20044;-72
2022/11/27 07:16:26;;;;;;;10.20;3.60;;;6.50;99.90;;;;;;5045395;28;20050;-72
2022/11/27 07:18:55;;;;;;;10.52;3.65;;;6.40;99.90;;;;;;5054344;28;20059;-72
2022/11/27 07:21:21;;;;;;;13.30;4.82;;;6.40;99.90;;;;;;5038834;28;20037;-72
2022/11/27 07:23:46;;;;;;;11.93;4.00;;;6.40;99.90;;;;;;5052844;28;20124;-72
2022/11/27 07:26:13;;;;;;;11.05;3.90;;;6.50;99.90;;;;;;5058355;28;20119;-72
2022/11/27 07:28:42;;;;;;;12.27;4.47;;;6.50;99.90;;;;;;5048217;28;20036;-72
2022/11/27 07:31:09;;;;;;;10.63;3.70;;;6.50;99.90;;;;;;5038781;28;20041;-72
2022/11/27 07:33:34;;;;;;;11.15;3.88;;;6.50;99.90;;;;;;5047542;28;20033;-72
2022/11/27 07:36:12;;;;;;;13.40;3.85;;;6.60;99.90;;;;;;5066244;28;20045;-72
2022/11/27 07:38:38;;;;;;;7.88;3.50;;;6.50;99.90;;;;;;5056078;28;20033;-72
2022/11/27 07:41:05;;;;;;;10.68;4.15;;;6.50;99.90;;;;;;5056835;28;20047;-72
2022/11/27 07:43:32;;;;;;;10.10;3.08;;;6.50;99.90;;;;;;5031629;28;20041;-72
2022/11/27 07:46:01;;;;;;;8.65;3.00;;;6.60;99.90;;;;;;5054701;28;20075;-72
2022/11/27 07:48:27;;;;;;;12.18;4.20;;;6.60;99.90;;;;;;5055900;28;20044;-72
2022/11/27 07:50:52;;;;;;;9.73;3.78;;;6.60;99.90;;;;;;5040805;28;20037;-72
2022/11/27 07:53:18;;;;;;;11.90;4.10;;;6.60;99.90;;;;;;5052367;28;20127;-72
2022/11/27 07:55:43;;;;;;;8.10;3.40;;;6.60;99.90;;;;;;5051854;28;20076;-72
2022/11/27 07:58:09;;;;;;;11.98;4.30;;;6.70;99.90;;;;;;5039121;28;20032;-72
2022/11/27 08:00:35;;;;;;;10.68;3.75;;;6.60;99.90;;;;;;5042496;28;20082;-72
2022/11/27 08:03:01;;;;;;;12.40;4.30;;;6.70;99.90;;;;;;5046183;28;20059;-72
2022/11/27 08:05:27;;;;;;;10.32;4.47;;;6.60;99.90;;;;;;5067385;28;20051;-72
2022/11/27 08:07:53;;;;;;;10.88;4.03;;;6.60;99.90;;;;;;5051658;28;20036;-72
2022/11/27 08:10:19;;;;;;;10.35;4.22;;;6.50;99.90;;;;;;5039798;28;20065;-73
2022/11/27 08:12:44;;;;;;;9.88;3.67;;;6.60;99.90;;;;;;5031949;28;20813;-72
2022/11/27 08:15:11;;;;;;;13.02;4.55;;;6.70;99.90;;;;;;5042928;28;20043;-72
2022/11/27 08:17:37;;;;;;;10.20;3.65;;;6.70;99.90;;;;;;5045945;28;20398;-73
2022/11/27 08:20:03;;;;;;;9.77;4.18;;;6.70;99.90;;;;;;5030428;28;20029;-72
2022/11/27 08:22:29;;;;;;;10.82;4.38;;;6.70;99.90;;;;;;5026965;28;20040;-72
2022/11/27 08:24:54;;;;;;;11.57;4.07;;;6.80;99.90;;;;;;5050766;28;20041;-72
2022/11/27 08:27:20;;;;;;;9.45;3.80;;;6.70;99.90;;;;;;5038920;28;20091;-72
2022/11/27 08:29:46;;;;;;;9.93;3.95;;;6.70;99.90;;;;;;5033770;28;20033;-72
2022/11/27 08:32:11;;;;;;;11.02;4.00;;;6.70;99.90;;;;;;5046282;28;20040;-72
2022/11/27 08:34:37;;;;;;;11.68;4.38;;;6.70;99.90;;;;;;5054890;28;20029;-72
2022/11/27 08:37:04;;;;;;;13.18;4.50;;;6.70;99.90;;;;;;5049672;28;20041;-75
2022/11/27 08:39:29;;;;;;;10.35;4.25;;;6.70;99.90;;;;;;5054948;28;20032;-75
2022/11/27 08:41:55;;;;;;;10.07;4.18;;;6.70;99.90;;;;;;5061806;28;20045;-74
2022/11/27 08:44:21;;;;;;;10.63;4.50;;;6.70;99.90;;;;;;5055036;28;20043;-75
2022/11/27 08:46:46;;;;;;;12.93;5.03;;;6.80;99.90;;;;;;5052912;28;20033;-72
2022/11/27 08:49:12;;;;;;;11.70;4.80;;;6.80;99.90;;;;;;5044460;28;20044;-72
2022/11/27 08:51:37;;;;;;;12.55;4.50;;;6.70;99.90;;;;;;5042920;28;20067;-72
2022/11/27 08:54:03;;;;;;;14.50;4.97;;;6.70;99.90;;;;;;5055315;28;20044;-72
2022/11/27 08:56:29;;;;;;;12.57;4.53;;;6.70;99.90;;;;;;5058520;28;20493;-72
2022/11/27 08:58:54;;;;;;;11.05;4.28;;;6.80;99.90;;;;;;5072999;28;20393;-72
2022/11/27 09:01:31;;;;;;;12.27;4.75;;;6.90;99.90;;;;;;5037115;28;20037;-72
2022/11/27 09:03:58;;;;;;;7.82;2.63;;;6.80;99.90;;;;;;5046445;28;20535;-72
2022/11/27 09:06:27;;;;;;;11.52;4.60;;;7.00;99.90;;;;;;5056224;28;20040;-72
2022/11/27 09:08:59;;;;;;;9.57;4.38;;;7.00;99.90;;;;;;5048931;28;20044;-72
2022/11/27 09:11:25;;;;;;;9.65;4.68;;;6.90;99.90;;;;;;5037632;28;20032;-72
2022/11/27 09:13:51;;;;;;;13.75;5.00;;;6.80;99.90;;;;;;5075041;28;20396;-72
2022/11/27 09:16:19;;;;;;;10.95;4.60;;;6.80;99.90;;;;;;5065297;28;20094;-72
2022/11/27 09:18:46;;;;;;;13.35;5.57;;;6.80;99.90;;;;;;5042867;28;20040;-72
2022/11/27 09:21:14;;;;;;;12.02;4.88;;;6.90;99.90;;;;;;5066238;28;20123;-72
2022/11/27 09:23:40;;;;;;;8.75;3.10;;;6.90;99.90;;;;;;5057868;28;20048;-72
2022/11/27 09:26:14;;;;;;;10.70;4.57;;;6.90;99.90;;;;;;5044737;28;20041;-72
2022/11/27 09:28:41;;;;;;;9.25;4.50;;;6.90;99.90;;;;;;5058957;28;20072;-72
2022/11/27 09:31:09;;;;;;;11.23;4.50;;;6.90;99.90;;;;;;5057980;28;20043;-72
2022/11/27 09:33:37;;;;;;;11.95;4.97;;;6.90;99.90;;;;;;5046860;28;20426;-72
2022/11/27 09:36:04;;;;;;;12.13;4.50;;;6.90;99.90;;;;;;5037219;28;20045;-72
2022/11/27 09:38:30;;;;;;;9.20;4.07;;;6.80;99.90;;;;;;5058812;28;20500;-72
2022/11/27 09:41:04;;;;;;;13.60;5.03;;;6.90;99.90;;;;;;5074703;28;20083;-73
2022/11/27 09:43:35;;;;;;;13.55;4.82;;;7.00;99.90;;;;;;5059055;28;20125;-72
2022/11/27 09:46:07;;;;;;;11.43;4.67;;;6.90;99.90;;;;;;5055013;28;20040;-72
2022/11/27 09:48:38;;;;;;;9.77;4.75;;;6.90;99.90;;;;;;5073363;28;20032;-72
2022/11/27 09:51:13;;;;;;;11.52;4.55;;;7.00;99.90;;;;;;5073149;28;20047;-72
2022/11/27 09:53:50;;;;;;;10.98;4.47;;;6.90;99.90;;;;;;5074361;28;20071;-72
2022/11/27 09:56:19;;;;;;;10.43;4.72;;;7.00;99.90;;;;;;5056758;28;20045;-72
2022/11/27 09:58:49;;;;;;;11.70;5.47;;;6.90;99.90;;;;;;5054908;28;20044;-72
2022/11/27 10:01:28;;;;;;;12.38;4.95;;;6.90;99.90;;;;;;5032277;28;20048;-71
2022/11/27 10:03:54;;;;;;;11.90;4.80;;;6.90;99.90;;;;;;5053311;28;20444;-72
2022/11/27 10:06:48;;;;;;;7.93;3.40;;;7.00;99.90;;;;;;5056428;28;20513;-71
2022/11/27 10:09:32;;;;;;;11.55;3.88;;;7.00;99.90;;;;;;5039957;28;20037;-72
2022/11/27 10:12:17;;;;;;;10.60;5.32;;;7.10;99.90;;;;;;5039561;28;20503;-72
2022/11/27 10:14:58;;;;;;;11.32;4.20;;;7.00;99.90;;;;;;5047763;28;20048;-71
2022/11/27 10:17:47;;;;;;;12.88;4.82;;;6.90;99.90;;;;;;5053138;28;20037;-71
2022/11/27 10:20:27;;;;;;;9.73;3.47;;;6.90;99.90;;;;;;5036049;28;20044;-71
2022/11/27 10:23:30;;;;;;;11.65;4.82;;;7.00;99.90;;;;;;5037033;28;20072;-71
2022/11/27 10:26:02;;;;;;;;;;;7.00;99.90;;;;;;5042078;28;20511;-72
2022/11/27 10:28:34;;;;;;;8.25;3.17;;;7.00;99.90;;;;;;5054891;28;20365;-71
2022/11/27 10:31:26;;;;;;;12.90;5.10;;;7.00;99.90;;;;;;5058834;28;20036;-71
2022/11/27 10:33:54;;;;;;;;;;;7.00;99.90;;;;;;5041818;28;20053;-71
2022/11/27 10:36:35;;;;;;;11.05;4.53;;;6.90;99.90;;;;;;5052265;28;19963;-72
2022/11/27 10:39:04;;;;;;;11.77;4.15;;;6.90;99.90;;;;;;5041203;28;20044;-72
2022/11/27 10:41:36;;;;;;;11.48;4.40;;;7.00;99.90;;;;;;5052673;28;20036;-71
2022/11/27 10:44:29;;;;;;;11.85;5.10;;;7.00;99.90;;;;;;5036506;28;20048;-71
2022/11/27 10:47:01;;;;;;;12.70;4.55;;;6.90;99.90;;;;;;5030769;28;20092;-71
2022/11/27 10:49:27;;;;;;;8.40;3.67;;;7.00;99.90;;;;;;5034950;28;20041;-71
2022/11/27 10:51:52;;;;;;;11.50;4.57;;;6.90;99.90;;;;;;5047820;28;20055;-71
2022/11/27 10:54:27;;;;;;;12.02;5.53;;;7.00;99.90;;;;;;5053020;28;20032;-71
2022/11/27 10:57:30;;;;;;;10.43;4.18;;;6.90;99.90;;;;;;5045313;28;20072;-71
2022/11/27 11:00:15;;;;;;;11.77;4.82;;;6.90;99.90;;;;;;5045124;28;20571;-71
2022/11/27 11:02:41;;;;;;;12.60;5.53;;;6.80;99.90;;;;;;5020308;28;20145;-71
2022/11/27 11:05:23;;;;;;;11.27;4.88;;;6.90;99.90;;;;;;5032036;28;20500;-71
2022/11/27 11:08:01;;;;;;;14.73;5.25;;;6.90;99.90;;;;;;5039733;28;20091;-71
2022/11/27 11:10:29;;;;;;;12.77;4.65;;;6.90;99.90;;;;;;5051752;28;20045;-71
2022/11/27 11:13:10;;;;;;;9.15;3.35;;;6.90;99.90;;;;;;5049706;28;20040;-71
2022/11/27 11:15:51;;;;;;;11.63;4.88;;;7.00;99.90;;;;;;5049924;28;20040;-71
2022/11/27 11:18:31;;;;;;;11.07;4.25;;;6.90;99.90;;;;;;5053907;28;20041;-71
2022/11/27 11:21:05;;;;;;;12.80;4.65;;;6.90;99.90;;;;;;5035834;28;20552;-71
2022/11/27 11:23:38;;;;;;;10.57;5.28;;;6.90;99.90;;;;;;5035700;28;20515;-71
2022/11/27 11:26:06;;;;;;;;;;;6.80;99.90;;;;;;5037024;28;20048;-72
2022/11/27 11:28:40;;;;;;;12.13;5.78;;;6.80;99.90;;;;;;5052368;28;19972;-71
2022/11/27 11:31:09;;;;;;;10.77;5.22;;;6.80;99.90;;;;;;5052302;28;20393;-72
2022/11/27 11:33:45;;;;;;;9.82;4.95;;;6.80;99.90;;;;;;5051554;28;20497;-71
2022/11/27 11:36:12;;;;;;;13.68;6.15;;;6.90;99.90;;;;;;5052717;28;20116;-71
2022/11/27 11:38:43;;;;;;;15.70;6.38;;;6.80;99.90;;;;;;5042270;28;20524;-71
2022/11/27 11:41:11;;;;;;;11.10;5.63;;;6.80;99.90;;;;;;5042185;28;20583;-71
2022/11/27 11:43:36;;;;;;;9.35;4.15;;;6.90;99.90;;;;;;5060122;28;20147;-71
2022/11/27 11:46:16;;;;;;;11.88;6.35;;;7.00;99.90;;;;;;5034827;28;20548;-71
2022/11/27 11:48:52;;;;;;;12.73;6.85;;;6.90;99.90;;;;;;5035433;28;20041;-72
2022/11/27 11:51:32;;;;;;;10.95;5.22;;;6.90;99.90;;;;;;5025735;28;20432;-71
2022/11/27 11:54:37;;;;;;;12.32;4.75;;;6.90;99.90;;;;;;5051166;28;20040;-71
2022/11/27 11:57:14;;;;;;;12.73;5.38;;;6.90;99.90;;;;;;5053840;28;20174;-71
2022/11/27 11:59:45;;;;;;;13.85;5.78;;;6.90;99.90;;;;;;5051833;28;20085;-71
2022/11/27 12:02:34;;;;;;;7.43;3.35;;;6.90;99.90;;;;;;5062355;28;20045;-72
2022/11/27 12:05:25;;;;;;;9.07;4.65;;;7.00;99.90;;;;;;5064552;28;20079;-71
2022/11/27 12:08:01;;;;;;;8.77;3.17;;;6.90;99.90;;;;;;5061688;28;20448;-71
2022/11/27 12:10:37;;;;;;;12.98;5.45;;;7.00;99.90;;;;;;5067149;28;20397;-71
2022/11/27 12:13:40;;;;;;;6.47;2.70;;;6.90;99.90;;;;;;5051438;28;20071;-71
2022/11/27 12:16:48;;;;;;;9.38;4.78;;;7.00;99.90;;;;;;5035029;28;20041;-71
2022/11/27 12:19:38;;;;;;;9.90;4.47;;;7.00;99.90;;;;;;5031308;28;20405;-71
2022/11/27 12:22:41;;;;;;;7.05;3.15;;;7.00;99.90;;;;;;5044331;28;20040;-71
2022/11/27 12:25:34;;;;;;;8.48;3.30;;;7.00;99.90;;;;;;5069333;28;20055;-71
2022/11/27 12:28:22;;;;;;;10.60;4.88;;;7.00;99.90;;;;;;5048611;28;20041;-71
2022/11/27 12:31:15;;;;;;;11.35;4.97;;;7.00;99.90;;;;;;5017791;28;20043;-71
2022/11/27 12:34:02;;;;;;;7.60;3.22;;;6.90;99.90;;;;;;5047284;28;20071;-71
2022/11/27 12:36:30;;;;;;;11.95;4.97;;;7.10;99.90;;;;;;5051004;28;20056;-71
2022/11/27 12:39:09;;;;;;;8.30;3.03;;;7.00;99.90;;;;;;5035813;28;20044;-71
2022/11/27 12:41:55;;;;;;;10.43;4.95;;;7.00;99.90;;;;;;5043616;28;20048;-71
2022/11/27 12:44:39;;;;;;;8.23;3.67;;;7.00;99.90;;;;;;5033866;28;20045;-71
2022/11/27 12:47:14;;;;;;;13.45;5.60;;;7.10;99.90;;;;;;5039064;28;20567;-71
2022/11/27 12:49:47;;;;;;;12.50;5.53;;;7.00;99.90;;;;;;5052538;28;20052;-71
2022/11/27 12:52:17;;;;;;;13.48;5.63;;;7.00;99.90;;;;;;5037473;28;20040;-71
2022/11/27 12:54:51;;;;;;;11.20;5.63;;;6.90;99.90;;;;;;5036759;28;20037;-72
2022/11/27 12:57:30;;;;;;;11.98;5.55;;;7.00;99.90;;;;;;5051496;28;20037;-71
2022/11/27 13:00:02;;;;;;;14.38;7.50;;;7.10;99.90;;;;;;5049628;28;20037;-71
2022/11/27 13:02:52;;;;;;;16.58;9.80;;;7.10;99.90;;;;;;5033962;28;20044;-71
2022/11/27 13:05:25;;;;;;;10.15;4.60;;;7.10;99.90;;;;;;5017869;28;20055;-72
2022/11/27 13:07:53;;;;;;;10.05;4.18;;;7.20;99.90;;;;;;5048851;28;20033;-71
2022/11/27 13:10:36;;;;;;;6.72;3.78;;;7.10;99.90;;;;;;5033976;28;20481;-71